createdAt,value
2023-05-18T00:00:32.143Z,7.78
2023-05-18T00:01:35.335Z,7.81
2023-05-18T00:02:32.794Z,7.8
2023-05-18T00:03:34.697Z,7.73
2023-05-18T00:04:34.577Z,7.74
2023-05-18T00:05:34.104Z,7.73
2023-05-18T00:06:34.343Z,7.62
2023-05-18T00:07:34.777Z,7.5
2023-05-18T00:08:35.592Z,7.45
2023-05-18T00:09:36.700Z,7.47
2023-05-18T00:10:36.061Z,7.49
2023-05-18T00:11:36.316Z,7.52
2023-05-18T00:12:36.709Z,7.47
2023-05-18T00:13:37.062Z,7.42
2023-05-18T00:14:37.477Z,7.39
2023-05-18T00:15:37.998Z,7.4
2023-05-18T00:16:38.478Z,7.32
2023-05-18T00:17:38.660Z,7.27
2023-05-18T00:18:39.092Z,7.14
2023-05-18T00:19:39.401Z,7.03
2023-05-18T00:20:40.360Z,6.96
2023-05-18T00:21:41.003Z,6.94
2023-05-18T00:22:40.689Z,6.84
2023-05-18T00:23:41.009Z,6.81
2023-05-18T00:24:41.527Z,6.79
2023-05-18T00:25:42.339Z,6.76
2023-05-18T00:26:43.791Z,6.81
2023-05-18T00:27:42.680Z,6.83
2023-05-18T00:28:43.193Z,6.8
2023-05-18T00:29:46.390Z,6.81
2023-05-18T00:30:44.408Z,6.78
2023-05-18T00:31:44.308Z,6.7
2023-05-18T00:32:44.734Z,6.68
2023-05-18T00:33:45.090Z,6.68
2023-05-18T00:34:45.299Z,6.68
2023-05-18T00:35:45.822Z,6.66
2023-05-18T00:36:46.216Z,6.66
2023-05-18T00:37:46.637Z,6.58
2023-05-18T00:38:46.847Z,6.54
2023-05-18T00:39:47.307Z,6.51
2023-05-18T00:40:47.780Z,6.52
2023-05-18T00:41:48.193Z,6.47
2023-05-18T00:42:48.532Z,6.42
2023-05-18T00:43:49.547Z,6.43
2023-05-18T00:44:49.456Z,6.42
2023-05-18T00:45:49.696Z,6.45
2023-05-18T00:46:50.094Z,6.42
2023-05-18T00:48:52.346Z,6.37
2023-05-18T00:49:51.948Z,6.37
2023-05-18T00:50:52.675Z,6.44
2023-05-18T00:51:53.187Z,6.45
2023-05-18T00:52:53.062Z,6.43
2023-05-18T00:53:55.153Z,6.39
2023-05-18T00:54:54.719Z,6.4
2023-05-18T00:55:54.233Z,6.31
2023-05-18T00:56:54.571Z,6.31
2023-05-18T00:57:56.622Z,6.33
2023-05-18T00:58:56.624Z,6.36
2023-05-18T01:01:00.958Z,6.33
2023-05-18T01:02:01.281Z,6.28
2023-05-18T01:03:01.662Z,6.32
2023-05-18T01:04:03.825Z,6.35
2023-05-18T01:05:02.288Z,6.37
2023-05-18T01:06:02.692Z,6.32
2023-05-18T01:07:03.316Z,6.3
2023-05-18T01:08:05.064Z,6.29
2023-05-18T01:09:07.306Z,6.23
2023-05-18T01:10:05.606Z,6.26
2023-05-18T01:11:20.219Z,6.31
2023-05-18T01:12:18.132Z,6.34
2023-05-18T01:16:26.227Z,6.25
2023-05-18T01:24:42.980Z,6.11
2023-05-18T01:26:49.006Z,6.13
2023-05-18T01:27:47.179Z,6.18
2023-05-18T01:28:48.318Z,6.18
2023-05-18T01:29:48.630Z,6.17
2023-05-18T01:30:48.556Z,6.09
2023-05-18T01:31:50.702Z,5.99
2023-05-18T01:32:49.720Z,6.02
2023-05-18T01:33:48.864Z,6.09
2023-05-18T01:34:50.410Z,6.1
2023-05-18T01:35:49.706Z,6.1
2023-05-18T01:36:49.806Z,6.07
2023-05-18T01:37:50.308Z,6.08
2023-05-18T01:38:52.067Z,6.08
2023-05-18T01:39:51.351Z,6.12
2023-05-18T01:48:16.396Z,6.05
2023-05-18T01:51:23.485Z,6.02
2023-05-18T01:54:27.009Z,5.98
2023-05-18T01:55:30.098Z,5.96
2023-05-18T01:56:28.844Z,5.9
2023-05-18T01:57:31.198Z,5.96
2023-05-18T01:58:29.238Z,5.95
2023-05-18T01:59:30.691Z,5.95
2023-05-18T02:00:29.585Z,5.98
2023-05-18T02:01:30.331Z,5.98
2023-05-18T02:02:30.413Z,5.94
2023-05-18T02:03:32.580Z,5.96
2023-05-18T02:04:31.254Z,5.95
2023-05-18T02:05:31.557Z,5.94
2023-05-18T02:06:31.676Z,5.91
2023-05-18T02:07:32.196Z,5.89
2023-05-18T02:08:32.519Z,5.77
2023-05-18T02:09:34.361Z,5.76
2023-05-18T02:10:33.258Z,5.76
2023-05-18T02:11:33.558Z,5.73
2023-05-18T02:12:33.962Z,5.74
2023-05-18T02:13:34.503Z,5.72
2023-05-18T02:14:34.897Z,5.68
2023-05-18T02:15:35.106Z,5.71
2023-05-18T02:16:35.549Z,5.73
2023-05-18T02:17:36.671Z,5.73
2023-05-18T02:18:36.247Z,5.77
2023-05-18T02:19:37.082Z,5.79
2023-05-18T02:20:37.191Z,5.74
2023-05-18T02:21:37.411Z,5.7
2023-05-18T02:22:37.725Z,5.62
2023-05-18T02:23:38.346Z,5.58
2023-05-18T02:24:38.551Z,5.55
2023-05-18T02:25:38.873Z,5.48
2023-05-18T02:26:39.689Z,5.4
2023-05-18T02:27:39.588Z,5.41
2023-05-18T02:28:40.184Z,5.47
2023-05-18T02:29:40.540Z,5.49
2023-05-18T02:30:43.617Z,5.55
2023-05-18T02:31:41.390Z,5.57
2023-05-18T02:32:41.805Z,5.58
2023-05-18T02:33:42.168Z,5.59
2023-05-18T02:34:42.711Z,5.59
2023-05-18T02:35:42.830Z,5.53
2023-05-18T02:36:43.244Z,5.54
2023-05-18T02:37:43.620Z,5.56
2023-05-18T02:38:44.187Z,5.51
2023-05-18T02:39:44.292Z,5.49
2023-05-18T02:40:44.797Z,5.48
2023-05-18T02:41:45.117Z,5.47
2023-05-18T02:42:45.430Z,5.5
2023-05-18T02:43:45.753Z,5.4
2023-05-18T02:44:46.264Z,5.41
2023-05-18T02:45:46.737Z,5.5
2023-05-18T02:46:46.983Z,5.54
2023-05-18T02:47:47.451Z,5.52
2023-05-18T02:48:48.325Z,5.48
2023-05-18T02:49:48.141Z,5.48
2023-05-18T02:50:51.831Z,5.49
2023-05-18T02:51:49.065Z,5.51
2023-05-18T02:52:49.601Z,5.47
2023-05-18T02:53:50.521Z,5.48
2023-05-18T02:54:50.836Z,5.47
2023-05-18T02:55:55.456Z,5.44
2023-05-18T02:56:52.901Z,5.43
2023-05-18T02:57:53.324Z,5.38
2023-05-18T02:58:53.730Z,5.35
2023-05-18T02:59:57.744Z,5.33
2023-05-18T03:00:55.665Z,5.27
2023-05-18T03:01:55.902Z,5.23
2023-05-18T03:02:56.645Z,5.23
2023-05-18T03:03:57.365Z,5.25
2023-05-18T03:04:56.945Z,5.22
2023-05-18T03:05:57.160Z,5.21
2023-05-18T03:06:59.014Z,5.17
2023-05-18T03:07:57.903Z,5.2
2023-05-18T03:08:58.533Z,5.18
2023-05-18T03:09:59.043Z,5.2
2023-05-18T03:10:59.205Z,5.14
2023-05-18T03:12:02.330Z,5.11
2023-05-18T03:12:59.674Z,5.09
2023-05-18T03:14:00.174Z,5.12
2023-05-18T03:15:00.596Z,5.15
2023-05-18T03:16:04.284Z,5.17
2023-05-18T03:17:01.840Z,5.21
2023-05-18T03:18:02.129Z,5.23
2023-05-18T03:19:02.552Z,5.24
2023-05-18T03:20:02.885Z,5.25
2023-05-18T03:21:03.198Z,5.26
2023-05-18T03:22:04.229Z,5.24
2023-05-18T03:23:06.763Z,5.22
2023-05-18T03:24:04.968Z,5.23
2023-05-18T03:25:05.544Z,5.21
2023-05-18T03:26:05.194Z,5.22
2023-05-18T03:27:06.311Z,5.26
2023-05-18T03:28:06.083Z,5.24
2023-05-18T03:29:06.217Z,5.24
2023-05-18T03:30:07.861Z,5.27
2023-05-18T03:31:07.296Z,5.31
2023-05-18T03:32:07.882Z,5.27
2023-05-18T03:33:08.140Z,5.24
2023-05-18T03:34:08.098Z,5.26
2023-05-18T03:35:09.128Z,5.27
2023-05-18T03:36:09.447Z,5.3
2023-05-18T03:37:09.247Z,5.28
2023-05-18T03:38:09.766Z,5.34
2023-05-18T03:39:09.975Z,5.35
2023-05-18T03:40:13.466Z,5.35
2023-05-18T03:41:10.914Z,5.34
2023-05-18T03:42:11.126Z,5.33
2023-05-18T03:43:11.647Z,5.36
2023-05-18T03:44:11.959Z,5.41
2023-05-18T03:45:13.807Z,5.39
2023-05-18T03:46:13.991Z,5.42
2023-05-18T03:47:15.975Z,5.43
2023-05-18T03:48:13.454Z,5.44
2023-05-18T03:49:13.949Z,5.46
2023-05-18T03:50:14.463Z,5.48
2023-05-18T03:51:14.764Z,5.5
2023-05-18T03:52:15.174Z,5.5
2023-05-18T03:53:15.935Z,5.55
2023-05-18T03:54:15.801Z,5.56
2023-05-18T03:55:16.348Z,5.47
2023-05-18T03:56:16.548Z,5.47
2023-05-18T03:57:17.785Z,5.56
2023-05-18T03:58:17.489Z,5.62
2023-05-18T03:59:17.786Z,5.68
2023-05-18T04:00:18.936Z,5.68
2023-05-18T04:01:19.972Z,5.81
2023-05-18T04:02:18.890Z,5.86
2023-05-18T04:03:19.561Z,5.91
2023-05-18T04:04:20.485Z,6.03
2023-05-18T04:05:20.994Z,6.02
2023-05-18T04:06:20.722Z,6.05
2023-05-18T04:07:21.220Z,5.99
2023-05-18T04:08:24.293Z,5.98
2023-05-18T04:09:21.655Z,6.14
2023-05-18T04:10:22.251Z,6.22
2023-05-18T04:11:22.483Z,6.33
2023-05-18T04:12:23.208Z,6.36
2023-05-18T04:13:23.231Z,6.36
2023-05-18T04:14:23.647Z,6.28
2023-05-18T04:15:24.152Z,6.17
2023-05-18T04:16:25.028Z,6.2
2023-05-18T04:17:24.870Z,6.16
2023-05-18T04:18:25.281Z,6.26
2023-05-18T04:19:25.661Z,6.34
2023-05-18T04:20:26.044Z,6.32
2023-05-18T04:21:26.438Z,6.31
2023-05-18T04:22:26.853Z,6.2
2023-05-18T04:23:27.262Z,6.19
2023-05-18T04:24:27.684Z,6.23
2023-05-18T04:25:31.208Z,6.31
2023-05-18T04:26:29.199Z,6.28
2023-05-18T04:27:29.233Z,6.35
2023-05-18T04:28:29.673Z,6.32
2023-05-18T04:29:30.271Z,6.4
2023-05-18T04:30:33.093Z,6.49
2023-05-18T04:31:30.826Z,6.5
2023-05-18T04:32:31.287Z,6.57
2023-05-18T04:33:31.750Z,6.64
2023-05-18T04:34:32.073Z,6.59
2023-05-18T04:35:33.902Z,6.52
2023-05-18T04:36:32.681Z,6.57
2023-05-18T04:37:34.328Z,6.7
2023-05-18T04:38:33.733Z,6.88
2023-05-18T04:39:34.506Z,6.97
2023-05-18T04:40:34.495Z,7.09
2023-05-18T04:41:34.964Z,7.11
2023-05-18T04:42:35.071Z,7.06
2023-05-18T04:43:35.588Z,7.14
2023-05-18T04:44:35.907Z,7.07
2023-05-18T04:45:37.928Z,7.13
2023-05-18T04:46:36.531Z,7.32
2023-05-18T04:47:37.216Z,7.49
2023-05-18T04:48:37.690Z,7.66
2023-05-18T04:49:37.884Z,7.67
2023-05-18T04:50:39.620Z,7.56
2023-05-18T04:51:38.694Z,7.51
2023-05-18T04:52:39.242Z,7.44
2023-05-18T04:53:39.550Z,7.47
2023-05-18T04:54:39.968Z,7.58
2023-05-18T04:55:40.489Z,7.64
2023-05-18T04:56:40.799Z,7.63
2023-05-18T04:57:41.109Z,7.43
2023-05-18T04:58:41.647Z,7.38
2023-05-18T04:59:42.059Z,7.44
2023-05-18T05:00:42.979Z,7.53
2023-05-18T05:01:42.802Z,7.51
2023-05-18T05:02:43.252Z,7.46
2023-05-18T05:03:43.965Z,7.45
2023-05-18T05:04:44.644Z,7.44
2023-05-18T05:05:45.194Z,7.36
2023-05-18T05:06:44.646Z,7.35
2023-05-18T05:07:45.376Z,7.45
2023-05-18T05:08:45.486Z,7.44
2023-05-18T05:09:45.907Z,7.52
2023-05-18T05:10:46.315Z,7.53
2023-05-18T05:11:46.735Z,7.54
2023-05-18T05:12:49.354Z,7.67
2023-05-18T05:13:48.585Z,7.75
2023-05-18T05:14:48.097Z,7.8
2023-05-18T05:15:51.292Z,7.81
2023-05-18T05:16:48.640Z,7.88
2023-05-18T05:17:50.344Z,7.73
2023-05-18T05:18:49.562Z,7.63
2023-05-18T05:19:49.969Z,7.69
2023-05-18T05:20:51.196Z,7.72
2023-05-18T05:21:50.699Z,7.56
2023-05-18T05:22:51.256Z,7.59
2023-05-18T05:23:51.621Z,7.58
2023-05-18T05:24:52.252Z,7.63
2023-05-18T05:25:52.459Z,7.54
2023-05-18T05:26:52.665Z,7.57
2023-05-18T05:27:53.306Z,7.59
2023-05-18T05:28:53.607Z,7.52
2023-05-18T05:29:54.347Z,7.57
2023-05-18T05:30:54.647Z,7.67
2023-05-18T05:31:55.045Z,7.62
2023-05-18T05:32:55.481Z,7.61
2023-05-18T05:33:55.797Z,7.86
2023-05-18T05:34:56.002Z,7.95
2023-05-18T05:35:56.604Z,7.94
2023-05-18T05:36:56.821Z,7.96
2023-05-18T05:37:57.356Z,8.1
2023-05-18T05:38:58.276Z,8.19
2023-05-18T05:39:58.189Z,8.3
2023-05-18T05:40:58.598Z,8.4
2023-05-18T05:41:58.932Z,8.43
2023-05-18T05:42:59.388Z,8.51
2023-05-18T05:43:59.650Z,8.44
2023-05-18T05:45:01.191Z,8.5
2023-05-18T05:46:00.506Z,8.35
2023-05-18T05:47:00.969Z,8.09
2023-05-18T05:48:01.428Z,8.22
2023-05-18T05:49:01.633Z,8.2
2023-05-18T05:50:02.082Z,8.24
2023-05-18T05:51:02.559Z,8.02
2023-05-18T05:52:02.874Z,7.98
2023-05-18T05:54:09.990Z,8.27
2023-05-18T05:55:08.222Z,8.23
2023-05-18T05:56:08.960Z,8.1
2023-05-18T05:57:09.048Z,7.86
2023-05-18T05:58:09.884Z,7.71
2023-05-18T05:59:09.989Z,7.7
2023-05-18T06:00:12.896Z,7.68
2023-05-18T06:01:19.322Z,7.74
2023-05-18T06:02:12.697Z,7.82
2023-05-18T06:03:12.448Z,7.77
2023-05-18T06:04:12.827Z,7.96
2023-05-18T06:05:12.887Z,8.07
2023-05-18T06:06:13.840Z,8.09
2023-05-18T06:07:13.724Z,8.26
2023-05-18T06:08:14.058Z,8.26
2023-05-18T06:09:14.670Z,8.45
2023-05-18T06:10:14.974Z,8.69
2023-05-18T06:11:20.919Z,8.87
2023-05-18T06:12:18.479Z,8.89
2023-05-18T06:13:18.933Z,8.89
2023-05-18T06:14:19.224Z,8.7
2023-05-18T06:15:19.852Z,8.75
2023-05-18T06:16:19.944Z,8.69
2023-05-18T06:17:23.623Z,8.52
2023-05-18T06:18:23.644Z,8.6
2023-05-18T06:19:21.616Z,8.63
2023-05-18T06:20:25.160Z,8.71
2023-05-18T06:21:22.940Z,8.6
2023-05-18T06:22:24.167Z,8.56
2023-05-18T06:23:23.355Z,8.78
2023-05-18T06:24:24.083Z,8.78
2023-05-18T06:25:24.157Z,8.99
2023-05-18T06:26:24.816Z,9.06
2023-05-18T06:27:28.808Z,8.94
2023-05-18T06:28:26.256Z,9.02
2023-05-18T06:29:26.695Z,8.97
2023-05-18T06:30:27.419Z,8.61
2023-05-18T06:31:30.078Z,8.45
2023-05-18T06:32:28.085Z,8.62
2023-05-18T06:33:35.817Z,8.86
2023-05-18T06:34:33.368Z,9.07
2023-05-18T06:35:34.500Z,9.16
2023-05-18T06:36:34.202Z,9.39
2023-05-18T06:37:34.615Z,9.33
2023-05-18T06:38:35.753Z,9.2
2023-05-18T06:39:35.251Z,9.14
2023-05-18T06:40:36.271Z,9.13
2023-05-18T06:41:36.284Z,9.24
2023-05-18T06:42:36.607Z,9.29
2023-05-18T06:43:37.226Z,9.36
2023-05-18T06:44:37.327Z,9.48
2023-05-18T06:45:38.150Z,9.58
2023-05-18T06:46:38.758Z,9.46
2023-05-18T06:47:39.034Z,9.48
2023-05-18T06:48:39.214Z,9.63
2023-05-18T06:49:39.634Z,9.82
2023-05-18T06:50:40.034Z,9.6
2023-05-18T06:51:40.253Z,9.46
2023-05-18T06:52:40.665Z,9.66
2023-05-18T06:53:41.288Z,9.69
2023-05-18T06:54:41.689Z,9.44
2023-05-18T06:55:42.014Z,9.84
2023-05-18T06:56:43.252Z,9.92
2023-05-18T06:57:42.972Z,9.9
2023-05-18T06:58:44.602Z,9.71
2023-05-18T06:59:43.778Z,9.49
2023-05-18T07:00:43.994Z,9.85
2023-05-18T07:01:44.535Z,10.16
2023-05-18T07:02:44.891Z,9.98
2023-05-18T07:03:45.514Z,9.7
2023-05-18T07:04:45.806Z,9.53
2023-05-18T07:05:46.280Z,9.7
2023-05-18T07:06:47.316Z,9.73
2023-05-18T07:07:46.968Z,9.71
2023-05-18T07:08:47.451Z,9.74
2023-05-18T07:09:47.734Z,9.9
2023-05-18T07:10:48.164Z,9.87
2023-05-18T07:11:48.772Z,9.85
2023-05-18T07:12:52.281Z,9.66
2023-05-18T07:13:49.912Z,9.45
2023-05-18T07:14:50.323Z,9.55
2023-05-18T07:15:51.078Z,9.56
2023-05-18T07:16:51.261Z,9.74
2023-05-18T07:17:51.639Z,9.66
2023-05-18T07:18:52.044Z,9.75
2023-05-18T07:19:52.425Z,9.99
2023-05-18T07:20:52.827Z,10.02
2023-05-18T07:21:53.163Z,10.17
2023-05-18T07:22:53.861Z,10.29
2023-05-18T07:23:54.074Z,10.23
2023-05-18T07:24:54.487Z,10.37
2023-05-18T07:25:54.944Z,10.5
2023-05-18T07:26:55.250Z,10.36
2023-05-18T07:27:55.850Z,10.16
2023-05-18T07:28:56.382Z,10.19
2023-05-18T07:29:56.589Z,10.58
2023-05-18T07:30:56.991Z,10.29
2023-05-18T07:31:57.724Z,9.96
2023-05-18T07:32:57.937Z,10.03
2023-05-18T07:33:58.517Z,10.26
2023-05-18T07:34:58.701Z,10.46
2023-05-18T07:35:59.584Z,10.45
2023-05-18T07:37:00.126Z,10.98
2023-05-18T07:38:00.217Z,10.9
2023-05-18T07:39:01.456Z,10.78
2023-05-18T07:40:01.880Z,10.71
2023-05-18T07:41:06.685Z,10.43
2023-05-18T07:42:06.588Z,10.67
2023-05-18T07:43:04.444Z,10.77
2023-05-18T07:44:06.724Z,10.61
2023-05-18T07:45:06.620Z,10.77
2023-05-18T07:46:05.795Z,10.93
2023-05-18T07:47:06.866Z,10.79
2023-05-18T07:48:06.755Z,10.9
2023-05-18T07:49:07.357Z,10.81
2023-05-18T07:50:08.613Z,11.04
2023-05-18T07:51:07.994Z,10.97
2023-05-18T07:52:08.394Z,10.95
2023-05-18T07:53:08.819Z,10.99
2023-05-18T07:54:09.576Z,11.09
2023-05-18T07:55:10.257Z,10.86
2023-05-18T07:56:10.157Z,10.77
2023-05-18T07:57:10.475Z,10.84
2023-05-18T07:58:11.007Z,10.83
2023-05-18T07:59:11.614Z,11.13
2023-05-18T08:00:12.748Z,11.43
2023-05-18T08:01:12.251Z,11.28
2023-05-18T08:02:12.705Z,11
2023-05-18T08:03:13.139Z,11.03
2023-05-18T08:04:13.590Z,11.25
2023-05-18T08:05:13.785Z,11.3
2023-05-18T08:06:14.330Z,11.55
2023-05-18T08:07:15.662Z,11.57
2023-05-18T08:08:16.314Z,11.44
2023-05-18T08:09:15.568Z,11.33
2023-05-18T08:10:16.098Z,11.63
2023-05-18T08:11:16.409Z,11.42
2023-05-18T08:12:16.833Z,11.31
2023-05-18T08:13:17.438Z,11.27
2023-05-18T08:14:18.689Z,11.31
2023-05-18T08:15:18.299Z,11.31
2023-05-18T08:16:18.863Z,11.27
2023-05-18T08:17:20.238Z,11.15
2023-05-18T08:18:19.827Z,11.17
2023-05-18T08:19:19.954Z,11.14
2023-05-18T08:20:20.360Z,11.09
2023-05-18T08:21:23.871Z,11.19
2023-05-18T08:22:21.412Z,11.27
2023-05-18T08:23:22.024Z,11.47
2023-05-18T08:24:22.314Z,11.69
2023-05-18T08:25:23.378Z,11.61
2023-05-18T08:26:23.165Z,11.47
2023-05-18T08:27:23.471Z,11.41
2023-05-18T08:28:23.888Z,11.41
2023-05-18T08:29:24.418Z,11.55
2023-05-18T08:30:24.731Z,11.8
2023-05-18T08:31:25.200Z,12.06
2023-05-18T08:32:25.701Z,12.17
2023-05-18T08:33:26.092Z,12.03
2023-05-18T08:34:29.367Z,12.08
2023-05-18T08:35:27.725Z,12.12
2023-05-18T08:36:27.755Z,11.75
2023-05-18T08:37:28.457Z,11.77
2023-05-18T08:38:28.902Z,11.92
2023-05-18T08:39:29.499Z,11.95
2023-05-18T08:40:37.681Z,11.92
2023-05-18T08:41:32.681Z,11.78
2023-05-18T08:43:38.140Z,11.76
2023-05-18T08:47:40.954Z,12.13
2023-05-18T08:48:43.838Z,12.12
2023-05-18T08:49:43.307Z,12.31
2023-05-18T08:50:44.330Z,12.56
2023-05-18T08:53:53.315Z,12.53
2023-05-18T08:54:53.045Z,12.41
2023-05-18T08:55:54.488Z,12.12
2023-05-18T08:56:53.265Z,11.93
2023-05-18T08:58:58.702Z,11.87
2023-05-18T08:59:57.663Z,12.01
2023-05-18T09:00:57.484Z,12.28
2023-05-18T09:01:57.405Z,12.39
2023-05-18T09:02:58.165Z,12.6
2023-05-18T09:03:59.635Z,12.7
2023-05-18T09:04:59.312Z,12.75
2023-05-18T09:06:00.689Z,13.08
2023-05-18T09:07:02.243Z,12.97
2023-05-18T09:08:03.845Z,12.77
2023-05-18T09:09:01.824Z,12.99
2023-05-18T09:10:03.349Z,12.81
2023-05-18T09:11:03.397Z,12.66
2023-05-18T09:12:04.548Z,12.46
2023-05-18T09:13:06.480Z,12.51
2023-05-18T09:14:04.245Z,12.92
2023-05-18T09:15:04.997Z,12.85
2023-05-18T09:16:05.414Z,12.82
2023-05-18T09:17:06.602Z,12.57
2023-05-18T09:18:05.795Z,12.38
2023-05-18T09:19:06.563Z,12.16
2023-05-18T09:20:07.755Z,12.05
2023-05-18T09:21:07.244Z,11.88
2023-05-18T09:22:07.569Z,11.73
2023-05-18T09:23:07.974Z,11.68
2023-05-18T09:24:08.887Z,11.92
2023-05-18T09:25:09.910Z,12.08
2023-05-18T09:26:09.331Z,12.43
2023-05-18T09:27:09.849Z,12.86
2023-05-18T09:28:10.064Z,13.15
2023-05-18T09:30:14.988Z,12.93
2023-05-18T09:32:17.163Z,12.87
2023-05-18T09:33:18.738Z,13.3
2023-05-18T09:34:20.655Z,13.37
2023-05-18T09:35:18.599Z,13.4
2023-05-18T09:37:21.801Z,13.15
2023-05-18T09:38:25.280Z,13.21
2023-05-18T09:39:22.715Z,13.33
2023-05-18T09:41:27.449Z,13.46
2023-05-18T09:43:31.159Z,12.92
2023-05-18T09:44:37.109Z,12.94
2023-05-18T09:45:39.685Z,13.02
2023-05-18T09:46:37.466Z,13.24
2023-05-18T09:47:37.826Z,13.29
2023-05-18T09:48:42.558Z,13.14
2023-05-18T09:49:43.882Z,13.19
2023-05-18T09:50:43.179Z,13.29
2023-05-18T09:51:42.582Z,13.39
2023-05-18T09:52:45.854Z,13.09
2023-05-18T09:55:50.583Z,13.38
2023-05-18T09:57:08.466Z,13.71
2023-05-18T09:57:52.539Z,13.91
2023-05-18T09:58:53.783Z,13.72
2023-05-18T10:01:01.523Z,13.96
2023-05-18T10:02:01.901Z,13.61
2023-05-18T10:03:00.240Z,13.37
2023-05-18T10:04:05.285Z,13.5
2023-05-18T10:05:04.469Z,13.08
2023-05-18T10:06:11.652Z,13.09
2023-05-18T10:07:09.813Z,12.99
2023-05-18T10:08:08.103Z,13.37
2023-05-18T10:10:10.869Z,13.19
2023-05-18T10:11:11.827Z,13.41
2023-05-18T10:12:16.206Z,13.41
2023-05-18T10:13:18.684Z,13.52
2023-05-18T10:14:16.518Z,13.25
2023-05-18T10:15:18.738Z,13.37
2023-05-18T10:16:17.497Z,13.67
2023-05-18T10:17:18.124Z,13.5
2023-05-18T10:18:22.464Z,13.26
2023-05-18T10:19:21.351Z,13.3
2023-05-18T10:20:22.894Z,13.51
2023-05-18T10:21:24.678Z,13.4
2023-05-18T10:22:23.543Z,13.16
2023-05-18T10:23:24.676Z,13.34
2023-05-18T10:24:25.404Z,13.49
2023-05-18T10:25:27.364Z,13.53
2023-05-18T10:26:30.008Z,13.57
2023-05-18T10:27:30.435Z,13.21
2023-05-18T10:28:33.284Z,13.13
2023-05-18T10:29:35.142Z,13.18
2023-05-18T10:30:34.405Z,13.39
2023-05-18T10:31:35.522Z,13.33
2023-05-18T10:32:36.682Z,13.44
2023-05-18T10:33:37.266Z,13.28
2023-05-18T10:34:36.344Z,13.05
2023-05-18T10:35:38.494Z,12.96
2023-05-18T10:36:37.353Z,12.9
2023-05-18T10:37:39.917Z,12.9
2023-05-18T10:38:38.801Z,12.81
2023-05-18T10:39:38.183Z,13
2023-05-18T10:40:43.663Z,13.41
2023-05-18T10:41:43.320Z,13.88
2023-05-18T10:42:43.551Z,14.05
2023-05-18T10:43:43.860Z,14.1
2023-05-18T10:44:45.081Z,14.21
2023-05-18T10:45:51.862Z,14.33
2023-05-18T10:46:45.041Z,14.23
2023-05-18T10:47:48.511Z,14.36
2023-05-18T10:48:50.941Z,14.36
2023-05-18T10:49:49.940Z,13.97
2023-05-18T10:50:50.164Z,13.78
2023-05-18T10:51:52.501Z,13.91
2023-05-18T10:52:51.914Z,14.02
2023-05-18T10:53:52.835Z,14.16
2023-05-18T10:54:54.064Z,13.91
2023-05-18T10:55:54.173Z,13.94
2023-05-18T10:56:53.738Z,13.95
2023-05-18T10:58:00.238Z,13.85
2023-05-18T10:58:58.282Z,13.37
2023-05-18T10:59:58.810Z,13.31
2023-05-18T11:01:01.373Z,13.31
2023-05-18T11:02:01.624Z,13.26
2023-05-18T11:03:01.830Z,13.33
2023-05-18T11:04:05.203Z,13.41
2023-05-18T11:05:06.466Z,13.63
2023-05-18T11:06:09.390Z,13.9
2023-05-18T11:07:11.346Z,14.15
2023-05-18T11:08:10.336Z,14.41
2023-05-18T11:10:14.649Z,14.57
2023-05-18T11:11:18.647Z,14.04
2023-05-18T11:12:18.032Z,13.9
2023-05-18T11:13:18.044Z,13.64
2023-05-18T11:15:20.613Z,13.67
2023-05-18T11:16:20.855Z,14.02
2023-05-18T11:17:26.853Z,13.86
2023-05-18T11:19:26.014Z,14.44
2023-05-18T11:20:26.078Z,14.62
2023-05-18T11:23:33.477Z,14.49
2023-05-18T11:24:33.677Z,14.29
2023-05-18T11:25:38.498Z,13.87
2023-05-18T11:26:40.978Z,13.9
2023-05-18T11:27:38.529Z,14.11
2023-05-18T11:29:46.311Z,14.76
2023-05-18T11:30:48.879Z,14.68
2023-05-18T11:31:51.763Z,14.87
2023-05-18T11:32:52.379Z,14.83
2023-05-18T11:33:50.232Z,14.81
2023-05-18T11:34:52.383Z,14.88
2023-05-18T11:36:55.990Z,14.92
2023-05-18T11:37:53.317Z,15.02
2023-05-18T11:40:00.096Z,15.08
2023-05-18T11:40:59.072Z,15.27
2023-05-18T11:42:01.149Z,15.25
2023-05-18T11:42:59.918Z,15.68
2023-05-18T11:45:09.968Z,15.6
2023-05-18T11:46:02.807Z,14.98
2023-05-18T11:47:05.463Z,14.83
2023-05-18T11:48:05.067Z,14.63
2023-05-18T11:49:16.941Z,14.54
2023-05-18T11:50:08.764Z,14.48
2023-05-18T11:51:06.624Z,14.8
2023-05-18T11:53:07.660Z,14.75
2023-05-18T11:54:08.606Z,14.75
2023-05-18T11:56:12.391Z,14.56
2023-05-18T11:57:12.085Z,14.67
2023-05-18T11:58:12.219Z,14.88
2023-05-18T11:59:13.674Z,14.88
2023-05-18T12:00:13.890Z,14.88
2023-05-18T12:01:13.962Z,14.92
2023-05-18T12:03:16.883Z,14.79
2023-05-18T12:04:19.404Z,14.64
2023-05-18T12:05:18.078Z,14.75
2023-05-18T12:06:17.666Z,14.55
2023-05-18T12:07:21.697Z,14.57
2023-05-18T12:08:20.671Z,14.75
2023-05-18T12:09:20.263Z,14.74
2023-05-18T12:10:22.016Z,14.83
2023-05-18T12:11:21.277Z,14.97
2023-05-18T12:12:21.039Z,15.28
2023-05-18T12:13:23.255Z,15.16
2023-05-18T12:14:22.851Z,15.14
2023-05-18T12:15:23.696Z,15.29
2023-05-18T12:16:23.913Z,15.02
2023-05-18T12:17:23.787Z,15.08
2023-05-18T12:18:24.009Z,15.23
2023-05-18T12:19:27.294Z,15.13
2023-05-18T12:20:25.193Z,14.91
2023-05-18T12:21:25.660Z,14.71
2023-05-18T12:22:27.207Z,14.74
2023-05-18T12:24:28.858Z,14.94
2023-05-18T12:25:28.386Z,15.36
2023-05-18T12:26:29.798Z,15.62
2023-05-18T12:27:29.292Z,15.56
2023-05-18T12:28:33.081Z,15.54
2023-05-18T12:29:31.457Z,15.19
2023-05-18T12:30:32.377Z,15.58
2023-05-18T12:31:33.126Z,15.68
2023-05-18T12:32:33.656Z,15.49
2023-05-18T12:33:36.504Z,15.29
2023-05-18T12:34:34.251Z,15.47
2023-05-18T12:35:35.033Z,15.2
2023-05-18T12:36:34.978Z,14.67
2023-05-18T12:37:45.045Z,14.85
2023-05-18T12:38:38.375Z,14.99
2023-05-18T12:39:41.960Z,14.92
2023-05-18T12:40:39.408Z,15.21
2023-05-18T12:41:39.925Z,15.46
2023-05-18T12:42:40.447Z,15.65
2023-05-18T12:43:41.276Z,15.01
2023-05-18T12:44:42.404Z,14.6
2023-05-18T12:45:44.901Z,14.43
2023-05-18T12:46:43.726Z,14.37
2023-05-18T12:47:43.202Z,14.63
2023-05-18T12:48:46.959Z,14.85
2023-05-18T12:49:49.806Z,14.97
2023-05-18T12:50:48.537Z,15.1
2023-05-18T12:51:48.086Z,15
2023-05-18T12:52:49.421Z,15.44
2023-05-18T12:53:51.482Z,15.18
2023-05-18T12:54:56.820Z,15.45
2023-05-18T12:56:54.764Z,15.96
2023-05-18T12:59:01.032Z,16.12
2023-05-18T12:59:58.490Z,16.2
2023-05-18T13:00:59.125Z,15.78
2023-05-18T13:01:59.705Z,15.82
2023-05-18T13:03:13.609Z,15.95
2023-05-18T13:04:03.182Z,15.97
2023-05-18T13:05:10.800Z,15.61
2023-05-18T13:06:08.782Z,15.58
2023-05-18T13:07:08.353Z,15.41
2023-05-18T13:08:18.427Z,15.28
2023-05-18T13:11:34.616Z,14.93
2023-05-18T13:15:23.474Z,15.06
2023-05-18T13:16:20.945Z,15.17
2023-05-18T13:17:24.042Z,14.89
2023-05-18T13:18:24.617Z,15.18
2023-05-18T13:19:22.295Z,15.04
2023-05-18T13:20:22.782Z,15.27
2023-05-18T13:21:25.882Z,15.49
2023-05-18T13:22:23.833Z,15.36
2023-05-18T13:23:27.219Z,15.06
2023-05-18T13:24:24.755Z,15.23
2023-05-18T13:25:25.792Z,15.18
2023-05-18T13:26:25.823Z,15.57
2023-05-18T13:27:26.002Z,15.68
2023-05-18T13:28:27.448Z,15.54
2023-05-18T13:29:27.044Z,15.2
2023-05-18T13:30:27.380Z,15.19
2023-05-18T13:31:28.203Z,15.07
2023-05-18T13:32:28.433Z,14.95
2023-05-18T13:33:29.026Z,14.85
2023-05-18T13:34:29.236Z,14.8
2023-05-18T13:35:30.610Z,14.79
2023-05-18T13:36:30.477Z,15.03
2023-05-18T13:37:30.791Z,15.02
2023-05-18T13:38:33.748Z,15.37
2023-05-18T13:39:31.624Z,15.49
2023-05-18T13:40:32.135Z,15.53
2023-05-18T13:41:32.546Z,15.57
2023-05-18T13:42:33.379Z,15.72
2023-05-18T13:43:33.698Z,15.54
2023-05-18T13:44:34.011Z,15.62
2023-05-18T13:45:37.818Z,15.59
2023-05-18T13:46:35.569Z,15.35
2023-05-18T13:47:35.788Z,15.29
2023-05-18T13:48:36.501Z,15.37
2023-05-18T13:49:36.719Z,15.71
2023-05-18T13:50:37.454Z,15.78
2023-05-18T13:51:37.529Z,15.36
2023-05-18T13:52:38.261Z,15.47
2023-05-18T13:53:40.685Z,15.71
2023-05-18T13:54:39.010Z,15.66
2023-05-18T13:55:39.416Z,15.53
2023-05-18T13:56:39.926Z,15.72
2023-05-18T13:57:40.266Z,15.7
2023-05-18T13:58:40.850Z,15.36
2023-05-18T13:59:41.276Z,15.19
2023-05-18T14:00:43.037Z,15.25
2023-05-18T14:01:44.972Z,15.2
2023-05-18T14:02:45.892Z,15.26
2023-05-18T14:03:43.677Z,15.5
2023-05-18T14:04:43.975Z,15.55
2023-05-18T14:05:44.496Z,15.48
2023-05-18T14:06:45.004Z,15.36
2023-05-18T14:07:45.434Z,15.55
2023-05-18T14:08:45.942Z,15.73
2023-05-18T14:09:46.589Z,15.68
2023-05-18T14:10:46.798Z,15.77
2023-05-18T14:11:47.220Z,15.95
2023-05-18T14:12:47.717Z,15.92
2023-05-18T14:13:48.127Z,15.68
2023-05-18T14:14:48.621Z,15.73
2023-05-18T14:15:49.054Z,15.5
2023-05-18T14:16:49.749Z,15.5
2023-05-18T14:17:50.036Z,15.5
2023-05-18T14:18:50.454Z,15.52
2023-05-18T14:19:50.828Z,15.68